sensor_id;sensor_type;location;lat;lon;timestamp;P1;durP1;ratioP1;P2;durP2;ratioP2
55362;SDS011;41244;49.242;9.060;2023-03-14T00:00:58;1.85;;;1.75;;
55362;SDS011;41244;49.242;9.060;2023-03-14T00:03:24;7.43;;;4.60;;
55362;SDS011;41244;49.242;9.060;2023-03-14T00:05:49;1.88;;;1.77;;
55362;SDS011;41244;49.242;9.060;2023-03-14T00:08:15;4.22;;;1.80;;
55362;SDS011;41244;49.242;9.060;2023-03-14T00:10:41;1.85;;;1.75;;
55362;SDS011;41244;49.242;9.060;2023-03-14T00:13:07;2.60;;;1.73;;
55362;SDS011;41244;49.242;9.060;2023-03-14T00:15:33;4.32;;;1.90;;
55362;SDS011;41244;49.242;9.060;2023-03-14T00:18:00;2.15;;;1.98;;
55362;SDS011;41244;49.242;9.060;2023-03-14T00:20:26;1.73;;;1.60;;
55362;SDS011;41244;49.242;9.060;2023-03-14T00:22:51;1.50;;;1.40;;
55362;SDS011;41244;49.242;9.060;2023-03-14T00:25:17;2.85;;;1.90;;
55362;SDS011;41244;49.242;9.060;2023-03-14T00:27:43;3.85;;;2.13;;
55362;SDS011;41244;49.242;9.060;2023-03-14T00:30:09;4.03;;;2.15;;
55362;SDS011;41244;49.242;9.060;2023-03-14T00:32:35;2.05;;;1.85;;
55362;SDS011;41244;49.242;9.060;2023-03-14T00:35:01;2.05;;;1.85;;
55362;SDS011;41244;49.242;9.060;2023-03-14T00:37:28;2.22;;;1.90;;
55362;SDS011;41244;49.242;9.060;2023-03-14T00:39:54;2.50;;;1.88;;
55362;SDS011;41244;49.242;9.060;2023-03-14T00:42:20;2.83;;;2.08;;
55362;SDS011;41244;49.242;9.060;2023-03-14T00:44:45;3.78;;;1.80;;
55362;SDS011;41244;49.242;9.060;2023-03-14T00:47:11;1.92;;;1.67;;
55362;SDS011;41244;49.242;9.060;2023-03-14T00:49:37;2.05;;;1.80;;
55362;SDS011;41244;49.242;9.060;2023-03-14T00:52:03;3.05;;;1.83;;
55362;SDS011;41244;49.242;9.060;2023-03-14T00:54:29;2.03;;;1.88;;
55362;SDS011;41244;49.242;9.060;2023-03-14T00:56:55;2.67;;;2.35;;
55362;SDS011;41244;49.242;9.060;2023-03-14T00:59:21;1.67;;;1.50;;
55362;SDS011;41244;49.242;9.060;2023-03-14T01:01:46;2.28;;;1.65;;
55362;SDS011;41244;49.242;9.060;2023-03-14T01:04:12;2.45;;;1.95;;
55362;SDS011;41244;49.242;9.060;2023-03-14T01:06:38;3.25;;;2.33;;
55362;SDS011;41244;49.242;9.060;2023-03-14T01:09:04;2.40;;;2.10;;
55362;SDS011;41244;49.242;9.060;2023-03-14T01:11:31;2.85;;;2.20;;
55362;SDS011;41244;49.242;9.060;2023-03-14T01:13:58;2.13;;;1.90;;
55362;SDS011;41244;49.242;9.060;2023-03-14T01:16:26;2.17;;;1.98;;
55362;SDS011;41244;49.242;9.060;2023-03-14T01:18:55;5.45;;;2.67;;
55362;SDS011;41244;49.242;9.060;2023-03-14T01:21:25;3.05;;;2.08;;
55362;SDS011;41244;49.242;9.060;2023-03-14T01:23:54;2.70;;;2.00;;
55362;SDS011;41244;49.242;9.060;2023-03-14T01:26:22;2.92;;;1.92;;
55362;SDS011;41244;49.242;9.060;2023-03-14T01:28:50;3.80;;;2.20;;
55362;SDS011;41244;49.242;9.060;2023-03-14T01:31:19;3.83;;;1.90;;
55362;SDS011;41244;49.242;9.060;2023-03-14T01:33:45;2.88;;;2.05;;
55362;SDS011;41244;49.242;9.060;2023-03-14T01:36:11;1.83;;;1.73;;
55362;SDS011;41244;49.242;9.060;2023-03-14T01:38:38;2.47;;;1.92;;
55362;SDS011;41244;49.242;9.060;2023-03-14T01:41:05;1.73;;;1.55;;
55362;SDS011;41244;49.242;9.060;2023-03-14T01:43:32;2.78;;;1.80;;
55362;SDS011;41244;49.242;9.060;2023-03-14T01:51:25;2.08;;;1.98;;
55362;SDS011;41244;49.242;9.060;2023-03-14T01:54:07;1.95;;;1.85;;
55362;SDS011;41244;49.242;9.060;2023-03-14T01:56:42;2.50;;;1.95;;
55362;SDS011;41244;49.242;9.060;2023-03-14T01:59:13;1.95;;;1.80;;
55362;SDS011;41244;49.242;9.060;2023-03-14T02:01:40;2.15;;;1.85;;
55362;SDS011;41244;49.242;9.060;2023-03-14T02:04:09;2.42;;;2.00;;
55362;SDS011;41244;49.242;9.060;2023-03-14T02:09:29;2.50;;;1.90;;
55362;SDS011;41244;49.242;9.060;2023-03-14T02:11:56;2.72;;;1.90;;
55362;SDS011;41244;49.242;9.060;2023-03-14T02:14:25;2.70;;;1.95;;
55362;SDS011;41244;49.242;9.060;2023-03-14T02:16:57;2.30;;;2.10;;
55362;SDS011;41244;49.242;9.060;2023-03-14T02:19:28;3.80;;;1.90;;
55362;SDS011;41244;49.242;9.060;2023-03-14T02:22:24;2.78;;;2.10;;
55362;SDS011;41244;49.242;9.060;2023-03-14T02:27:37;3.58;;;1.90;;
55362;SDS011;41244;49.242;9.060;2023-03-14T02:32:30;1.85;;;1.67;;
55362;SDS011;41244;49.242;9.060;2023-03-14T02:34:59;1.88;;;1.77;;
55362;SDS011;41244;49.242;9.060;2023-03-14T02:37:32;3.67;;;1.90;;
55362;SDS011;41244;49.242;9.060;2023-03-14T02:40:02;1.80;;;1.70;;
55362;SDS011;41244;49.242;9.060;2023-03-14T02:42:29;2.40;;;2.00;;
55362;SDS011;41244;49.242;9.060;2023-03-14T02:47:33;4.53;;;2.35;;
55362;SDS011;41244;49.242;9.060;2023-03-14T02:50:09;2.03;;;1.90;;
55362;SDS011;41244;49.242;9.060;2023-03-14T02:52:41;4.18;;;2.10;;
55362;SDS011;41244;49.242;9.060;2023-03-14T02:55:07;2.60;;;1.52;;
55362;SDS011;41244;49.242;9.060;2023-03-14T02:57:33;4.88;;;2.03;;
55362;SDS011;41244;49.242;9.060;2023-03-14T02:59:59;3.83;;;2.10;;
55362;SDS011;41244;49.242;9.060;2023-03-14T03:02:29;2.88;;;1.95;;
55362;SDS011;41244;49.242;9.060;2023-03-14T03:04:55;2.30;;;1.90;;
55362;SDS011;41244;49.242;9.060;2023-03-14T03:07:20;2.30;;;2.10;;
55362;SDS011;41244;49.242;9.060;2023-03-14T03:09:46;2.00;;;1.90;;
55362;SDS011;41244;49.242;9.060;2023-03-14T03:12:12;3.60;;;2.05;;
55362;SDS011;41244;49.242;9.060;2023-03-14T03:14:37;2.45;;;2.03;;
55362;SDS011;41244;49.242;9.060;2023-03-14T03:17:04;4.15;;;2.10;;
55362;SDS011;41244;49.242;9.060;2023-03-14T03:19:30;2.58;;;2.03;;
55362;SDS011;41244;49.242;9.060;2023-03-14T03:21:57;4.60;;;2.28;;
55362;SDS011;41244;49.242;9.060;2023-03-14T03:24:23;2.53;;;1.90;;
55362;SDS011;41244;49.242;9.060;2023-03-14T03:26:49;2.13;;;1.80;;
55362;SDS011;41244;49.242;9.060;2023-03-14T03:29:15;2.42;;;2.10;;
55362;SDS011;41244;49.242;9.060;2023-03-14T03:31:41;5.75;;;2.08;;
55362;SDS011;41244;49.242;9.060;2023-03-14T03:34:07;3.70;;;1.90;;
55362;SDS011;41244;49.242;9.060;2023-03-14T03:36:33;3.33;;;1.90;;
55362;SDS011;41244;49.242;9.060;2023-03-14T03:38:59;2.35;;;1.75;;
55362;SDS011;41244;49.242;9.060;2023-03-14T03:41:25;2.30;;;2.10;;
55362;SDS011;41244;49.242;9.060;2023-03-14T03:43:50;3.78;;;2.08;;
55362;SDS011;41244;49.242;9.060;2023-03-14T03:46:16;4.70;;;2.00;;
55362;SDS011;41244;49.242;9.060;2023-03-14T03:48:42;2.50;;;1.90;;
55362;SDS011;41244;49.242;9.060;2023-03-14T03:51:11;5.68;;;2.03;;
55362;SDS011;41244;49.242;9.060;2023-03-14T03:53:39;1.73;;;1.63;;
55362;SDS011;41244;49.242;9.060;2023-03-14T03:56:05;4.10;;;2.08;;
55362;SDS011;41244;49.242;9.060;2023-03-14T03:58:32;3.42;;;2.30;;
55362;SDS011;41244;49.242;9.060;2023-03-14T04:00:57;2.88;;;1.65;;
55362;SDS011;41244;49.242;9.060;2023-03-14T04:03:23;4.35;;;2.42;;
55362;SDS011;41244;49.242;9.060;2023-03-14T04:05:59;2.75;;;2.00;;
55362;SDS011;41244;49.242;9.060;2023-03-14T04:08:26;3.00;;;1.98;;
55362;SDS011;41244;49.242;9.060;2023-03-14T04:10:58;5.43;;;2.00;;
55362;SDS011;41244;49.242;9.060;2023-03-14T04:13:25;4.45;;;2.00;;
55362;SDS011;41244;49.242;9.060;2023-03-14T04:15:52;3.28;;;2.03;;
55362;SDS011;41244;49.242;9.060;2023-03-14T04:18:19;4.80;;;2.50;;
55362;SDS011;41244;49.242;9.060;2023-03-14T04:20:45;4.53;;;1.90;;
55362;SDS011;41244;49.242;9.060;2023-03-14T04:23:24;1.98;;;1.88;;
55362;SDS011;41244;49.242;9.060;2023-03-14T04:25:50;3.85;;;2.03;;
55362;SDS011;41244;49.242;9.060;2023-03-14T04:28:17;3.80;;;2.17;;
55362;SDS011;41244;49.242;9.060;2023-03-14T04:30:43;3.83;;;2.10;;
55362;SDS011;41244;49.242;9.060;2023-03-14T04:33:08;5.63;;;2.65;;
55362;SDS011;41244;49.242;9.060;2023-03-14T04:35:35;2.80;;;1.90;;
55362;SDS011;41244;49.242;9.060;2023-03-14T04:38:01;5.03;;;2.30;;
55362;SDS011;41244;49.242;9.060;2023-03-14T04:40:27;5.80;;;2.60;;
55362;SDS011;41244;49.242;9.060;2023-03-14T04:42:53;3.65;;;2.20;;
55362;SDS011;41244;49.242;9.060;2023-03-14T04:45:19;6.28;;;2.20;;
55362;SDS011;41244;49.242;9.060;2023-03-14T04:47:45;4.13;;;2.03;;
55362;SDS011;41244;49.242;9.060;2023-03-14T04:50:10;3.90;;;2.00;;
55362;SDS011;41244;49.242;9.060;2023-03-14T04:52:36;4.25;;;2.00;;
55362;SDS011;41244;49.242;9.060;2023-03-14T04:55:02;5.85;;;2.20;;
55362;SDS011;41244;49.242;9.060;2023-03-14T04:57:28;4.07;;;1.80;;
55362;SDS011;41244;49.242;9.060;2023-03-14T04:59:54;10.40;;;2.78;;
55362;SDS011;41244;49.242;9.060;2023-03-14T05:02:20;3.47;;;1.70;;
55362;SDS011;41244;49.242;9.060;2023-03-14T05:04:45;3.20;;;2.17;;
55362;SDS011;41244;49.242;9.060;2023-03-14T05:07:11;2.90;;;2.03;;
55362;SDS011;41244;49.242;9.060;2023-03-14T05:09:37;4.07;;;1.88;;
55362;SDS011;41244;49.242;9.060;2023-03-14T05:12:03;3.97;;;1.92;;
55362;SDS011;41244;49.242;9.060;2023-03-14T05:14:29;3.50;;;1.83;;
55362;SDS011;41244;49.242;9.060;2023-03-14T05:16:55;5.00;;;2.00;;
55362;SDS011;41244;49.242;9.060;2023-03-14T05:19:21;3.67;;;1.95;;
55362;SDS011;41244;49.242;9.060;2023-03-14T05:21:46;5.47;;;2.03;;
55362;SDS011;41244;49.242;9.060;2023-03-14T05:24:12;8.68;;;2.40;;
55362;SDS011;41244;49.242;9.060;2023-03-14T05:26:38;4.82;;;2.08;;
55362;SDS011;41244;49.242;9.060;2023-03-14T05:29:04;5.10;;;1.88;;
55362;SDS011;41244;49.242;9.060;2023-03-14T05:31:29;4.82;;;2.17;;
55362;SDS011;41244;49.242;9.060;2023-03-14T05:33:55;4.68;;;2.05;;
55362;SDS011;41244;49.242;9.060;2023-03-14T05:36:21;2.55;;;2.03;;
55362;SDS011;41244;49.242;9.060;2023-03-14T05:38:46;3.08;;;2.25;;
55362;SDS011;41244;49.242;9.060;2023-03-14T05:41:12;4.53;;;1.95;;
55362;SDS011;41244;49.242;9.060;2023-03-14T05:43:38;3.42;;;1.80;;
55362;SDS011;41244;49.242;9.060;2023-03-14T05:46:04;4.57;;;2.13;;
55362;SDS011;41244;49.242;9.060;2023-03-14T05:48:30;4.90;;;2.45;;
55362;SDS011;41244;49.242;9.060;2023-03-14T05:50:56;3.90;;;2.10;;
55362;SDS011;41244;49.242;9.060;2023-03-14T05:53:24;3.58;;;1.95;;
55362;SDS011;41244;49.242;9.060;2023-03-14T05:55:53;3.88;;;2.13;;
55362;SDS011;41244;49.242;9.060;2023-03-14T05:58:19;3.13;;;2.08;;
55362;SDS011;41244;49.242;9.060;2023-03-14T06:00:45;5.78;;;2.28;;
55362;SDS011;41244;49.242;9.060;2023-03-14T06:03:11;3.15;;;2.20;;
55362;SDS011;41244;49.242;9.060;2023-03-14T06:05:37;3.25;;;2.40;;
55362;SDS011;41244;49.242;9.060;2023-03-14T06:08:03;3.50;;;1.83;;
55362;SDS011;41244;49.242;9.060;2023-03-14T06:10:29;4.80;;;2.55;;
55362;SDS011;41244;49.242;9.060;2023-03-14T06:12:54;3.70;;;2.70;;
55362;SDS011;41244;49.242;9.060;2023-03-14T06:15:20;5.57;;;2.63;;
55362;SDS011;41244;49.242;9.060;2023-03-14T06:17:46;7.28;;;3.83;;
55362;SDS011;41244;49.242;9.060;2023-03-14T06:20:12;6.47;;;2.50;;
55362;SDS011;41244;49.242;9.060;2023-03-14T06:22:37;3.15;;;2.15;;
55362;SDS011;41244;49.242;9.060;2023-03-14T06:25:04;6.75;;;2.53;;
55362;SDS011;41244;49.242;9.060;2023-03-14T06:27:30;5.97;;;2.45;;
55362;SDS011;41244;49.242;9.060;2023-03-14T06:29:56;3.17;;;1.90;;
55362;SDS011;41244;49.242;9.060;2023-03-14T06:32:22;3.65;;;2.20;;
55362;SDS011;41244;49.242;9.060;2023-03-14T06:34:48;5.22;;;2.20;;
55362;SDS011;41244;49.242;9.060;2023-03-14T06:37:14;4.55;;;1.85;;
55362;SDS011;41244;49.242;9.060;2023-03-14T06:39:39;3.10;;;1.60;;
55362;SDS011;41244;49.242;9.060;2023-03-14T06:42:05;3.03;;;1.80;;
55362;SDS011;41244;49.242;9.060;2023-03-14T06:44:31;4.80;;;2.03;;
55362;SDS011;41244;49.242;9.060;2023-03-14T06:46:57;7.47;;;5.00;;
55362;SDS011;41244;49.242;9.060;2023-03-14T06:49:23;3.42;;;1.60;;
55362;SDS011;41244;49.242;9.060;2023-03-14T06:51:48;4.03;;;2.00;;
55362;SDS011;41244;49.242;9.060;2023-03-14T06:54:14;4.20;;;1.80;;
55362;SDS011;41244;49.242;9.060;2023-03-14T06:56:40;3.50;;;1.70;;
55362;SDS011;41244;49.242;9.060;2023-03-14T06:59:06;4.03;;;1.90;;
55362;SDS011;41244;49.242;9.060;2023-03-14T07:01:31;3.70;;;1.55;;
55362;SDS011;41244;49.242;9.060;2023-03-14T07:03:57;3.05;;;1.70;;
55362;SDS011;41244;49.242;9.060;2023-03-14T07:06:23;2.78;;;1.60;;
55362;SDS011;41244;49.242;9.060;2023-03-14T07:08:50;2.90;;;1.70;;
55362;SDS011;41244;49.242;9.060;2023-03-14T07:11:16;1.85;;;1.60;;
55362;SDS011;41244;49.242;9.060;2023-03-14T07:13:42;3.35;;;1.90;;
55362;SDS011;41244;49.242;9.060;2023-03-14T07:16:08;6.57;;;2.97;;
55362;SDS011;41244;49.242;9.060;2023-03-14T07:18:33;1.60;;;1.30;;
55362;SDS011;41244;49.242;9.060;2023-03-14T07:20:59;1.52;;;1.42;;
55362;SDS011;41244;49.242;9.060;2023-03-14T07:23:25;4.70;;;2.10;;
55362;SDS011;41244;49.242;9.060;2023-03-14T07:25:51;3.53;;;1.55;;
55362;SDS011;41244;49.242;9.060;2023-03-14T07:28:18;3.83;;;1.60;;
55362;SDS011;41244;49.242;9.060;2023-03-14T07:30:46;3.00;;;1.60;;
55362;SDS011;41244;49.242;9.060;2023-03-14T07:33:12;1.95;;;1.45;;
55362;SDS011;41244;49.242;9.060;2023-03-14T07:35:38;2.08;;;1.27;;
55362;SDS011;41244;49.242;9.060;2023-03-14T07:38:04;3.65;;;1.40;;
55362;SDS011;41244;49.242;9.060;2023-03-14T07:40:29;3.95;;;1.70;;
55362;SDS011;41244;49.242;9.060;2023-03-14T07:42:55;1.83;;;1.45;;
55362;SDS011;41244;49.242;9.060;2023-03-14T07:45:21;1.98;;;1.55;;
55362;SDS011;41244;49.242;9.060;2023-03-14T07:47:46;1.38;;;1.27;;
55362;SDS011;41244;49.242;9.060;2023-03-14T07:50:12;2.63;;;1.80;;
55362;SDS011;41244;49.242;9.060;2023-03-14T07:52:38;6.05;;;2.03;;
55362;SDS011;41244;49.242;9.060;2023-03-14T07:55:04;3.67;;;1.90;;
55362;SDS011;41244;49.242;9.060;2023-03-14T07:57:30;2.05;;;1.38;;
55362;SDS011;41244;49.242;9.060;2023-03-14T07:59:56;2.30;;;1.80;;
55362;SDS011;41244;49.242;9.060;2023-03-14T08:02:22;3.00;;;2.00;;
55362;SDS011;41244;49.242;9.060;2023-03-14T08:04:49;4.00;;;1.75;;
55362;SDS011;41244;49.242;9.060;2023-03-14T08:07:15;2.33;;;2.10;;
55362;SDS011;41244;49.242;9.060;2023-03-14T08:09:41;1.42;;;1.33;;
55362;SDS011;41244;49.242;9.060;2023-03-14T08:12:07;2.30;;;1.70;;
55362;SDS011;41244;49.242;9.060;2023-03-14T08:14:33;3.35;;;2.05;;
55362;SDS011;41244;49.242;9.060;2023-03-14T08:16:58;1.98;;;1.85;;
55362;SDS011;41244;49.242;9.060;2023-03-14T08:19:24;1.90;;;1.70;;
55362;SDS011;41244;49.242;9.060;2023-03-14T08:21:50;1.50;;;1.40;;
55362;SDS011;41244;49.242;9.060;2023-03-14T08:24:16;3.75;;;1.88;;
55362;SDS011;41244;49.242;9.060;2023-03-14T08:26:42;4.97;;;1.98;;
55362;SDS011;41244;49.242;9.060;2023-03-14T08:29:08;2.78;;;1.83;;
55362;SDS011;41244;49.242;9.060;2023-03-14T08:31:34;2.72;;;1.23;;
55362;SDS011;41244;49.242;9.060;2023-03-14T08:34:00;3.35;;;1.85;;
55362;SDS011;41244;49.242;9.060;2023-03-14T08:36:26;1.58;;;1.35;;
55362;SDS011;41244;49.242;9.060;2023-03-14T08:38:52;1.55;;;1.40;;
55362;SDS011;41244;49.242;9.060;2023-03-14T08:41:19;3.13;;;2.22;;
55362;SDS011;41244;49.242;9.060;2023-03-14T08:43:44;2.53;;;1.70;;
55362;SDS011;41244;49.242;9.060;2023-03-14T08:46:10;1.85;;;1.60;;
55362;SDS011;41244;49.242;9.060;2023-03-14T08:48:36;2.30;;;1.40;;
55362;SDS011;41244;49.242;9.060;2023-03-14T08:51:20;1.83;;;1.55;;
55362;SDS011;41244;49.242;9.060;2023-03-14T08:53:45;2.72;;;1.70;;
55362;SDS011;41244;49.242;9.060;2023-03-14T08:56:11;7.20;;;3.85;;
55362;SDS011;41244;49.242;9.060;2023-03-14T08:58:37;1.52;;;1.15;;
55362;SDS011;41244;49.242;9.060;2023-03-14T09:01:06;3.10;;;1.40;;
55362;SDS011;41244;49.242;9.060;2023-03-14T09:03:33;2.78;;;1.27;;
55362;SDS011;41244;49.242;9.060;2023-03-14T09:06:06;2.00;;;1.52;;
55362;SDS011;41244;49.242;9.060;2023-03-14T09:08:34;2.90;;;2.30;;
55362;SDS011;41244;49.242;9.060;2023-03-14T09:11:00;1.13;;;1.13;;
55362;SDS011;41244;49.242;9.060;2023-03-14T09:13:26;1.30;;;1.15;;
55362;SDS011;41244;49.242;9.060;2023-03-14T09:15:52;1.50;;;1.40;;
55362;SDS011;41244;49.242;9.060;2023-03-14T09:18:20;4.70;;;1.52;;
55362;SDS011;41244;49.242;9.060;2023-03-14T09:20:46;1.80;;;1.70;;
55362;SDS011;41244;49.242;9.060;2023-03-14T09:23:12;2.35;;;1.40;;
55362;SDS011;41244;49.242;9.060;2023-03-14T09:25:38;2.38;;;1.77;;
55362;SDS011;41244;49.242;9.060;2023-03-14T09:28:04;2.63;;;1.40;;
55362;SDS011;41244;49.242;9.060;2023-03-14T09:30:30;2.70;;;1.55;;
55362;SDS011;41244;49.242;9.060;2023-03-14T09:32:55;1.70;;;1.60;;
55362;SDS011;41244;49.242;9.060;2023-03-14T09:35:22;2.53;;;1.42;;
55362;SDS011;41244;49.242;9.060;2023-03-14T09:37:48;4.32;;;1.55;;
55362;SDS011;41244;49.242;9.060;2023-03-14T09:40:15;1.98;;;1.20;;
55362;SDS011;41244;49.242;9.060;2023-03-14T09:42:43;2.13;;;1.50;;
55362;SDS011;41244;49.242;9.060;2023-03-14T09:47:53;1.85;;;1.42;;
55362;SDS011;41244;49.242;9.060;2023-03-14T09:50:19;4.75;;;1.38;;
55362;SDS011;41244;49.242;9.060;2023-03-14T09:52:45;1.35;;;1.23;;
55362;SDS011;41244;49.242;9.060;2023-03-14T09:55:18;1.02;;;1.02;;
55362;SDS011;41244;49.242;9.060;2023-03-14T09:57:46;1.33;;;1.23;;
55362;SDS011;41244;49.242;9.060;2023-03-14T10:00:18;1.42;;;1.23;;
55362;SDS011;41244;49.242;9.060;2023-03-14T10:02:50;5.03;;;1.50;;
55362;SDS011;41244;49.242;9.060;2023-03-14T10:05:23;2.83;;;1.50;;
55362;SDS011;41244;49.242;9.060;2023-03-14T10:07:50;2.10;;;1.40;;
55362;SDS011;41244;49.242;9.060;2023-03-14T10:12:47;1.42;;;1.33;;
55362;SDS011;41244;49.242;9.060;2023-03-14T10:15:24;5.32;;;1.77;;
55362;SDS011;41244;49.242;9.060;2023-03-14T10:17:54;4.38;;;1.48;;
55362;SDS011;41244;49.242;9.060;2023-03-14T10:25:36;2.40;;;2.05;;
55362;SDS011;41244;49.242;9.060;2023-03-14T10:30:54;1.77;;;1.50;;
55362;SDS011;41244;49.242;9.060;2023-03-14T10:33:27;3.90;;;1.25;;
55362;SDS011;41244;49.242;9.060;2023-03-14T10:36:03;2.10;;;1.00;;
55362;SDS011;41244;49.242;9.060;2023-03-14T10:38:43;1.20;;;1.10;;
55362;SDS011;41244;49.242;9.060;2023-03-14T10:41:27;4.80;;;1.48;;
55362;SDS011;41244;49.242;9.060;2023-03-14T10:43:57;3.60;;;1.50;;
55362;SDS011;41244;49.242;9.060;2023-03-14T10:46:24;1.80;;;1.50;;
55362;SDS011;41244;49.242;9.060;2023-03-14T10:48:54;1.30;;;1.05;;
55362;SDS011;41244;49.242;9.060;2023-03-14T10:51:24;1.60;;;1.50;;
55362;SDS011;41244;49.242;9.060;2023-03-14T10:56:35;1.52;;;1.17;;
55362;SDS011;41244;49.242;9.060;2023-03-14T10:59:03;1.58;;;1.45;;
55362;SDS011;41244;49.242;9.060;2023-03-14T11:04:31;1.25;;;0.90;;
55362;SDS011;41244;49.242;9.060;2023-03-14T11:07:24;1.20;;;1.20;;
55362;SDS011;41244;49.242;9.060;2023-03-14T11:24:02;2.25;;;1.40;;
55362;SDS011;41244;49.242;9.060;2023-03-14T11:27:07;1.20;;;1.17;;
55362;SDS011;41244;49.242;9.060;2023-03-14T11:44:09;3.72;;;1.38;;
55362;SDS011;41244;49.242;9.060;2023-03-14T11:46:49;1.75;;;1.65;;
55362;SDS011;41244;49.242;9.060;2023-03-14T11:49:38;1.73;;;1.63;;
55362;SDS011;41244;49.242;9.060;2023-03-14T11:52:16;1.40;;;1.30;;
55362;SDS011;41244;49.242;9.060;2023-03-14T11:54:57;1.10;;;1.10;;
55362;SDS011;41244;49.242;9.060;2023-03-14T11:57:46;1.50;;;1.40;;
55362;SDS011;41244;49.242;9.060;2023-03-14T12:08:38;1.48;;;1.38;;
55362;SDS011;41244;49.242;9.060;2023-03-14T12:13:52;1.58;;;1.50;;
55362;SDS011;41244;49.242;9.060;2023-03-14T12:16:38;1.60;;;1.60;;
55362;SDS011;41244;49.242;9.060;2023-03-14T12:22:07;2.53;;;2.33;;
55362;SDS011;41244;49.242;9.060;2023-03-14T12:24:51;2.35;;;1.95;;
55362;SDS011;41244;49.242;9.060;2023-03-14T12:35:50;5.50;;;3.00;;
55362;SDS011;41244;49.242;9.060;2023-03-14T12:41:14;4.00;;;2.65;;
55362;SDS011;41244;49.242;9.060;2023-03-14T12:44:24;2.97;;;2.10;;
55362;SDS011;41244;49.242;9.060;2023-03-14T12:46:54;2.70;;;2.50;;
55362;SDS011;41244;49.242;9.060;2023-03-14T12:49:29;3.08;;;2.13;;
55362;SDS011;41244;49.242;9.060;2023-03-14T12:51:59;2.50;;;2.30;;
55362;SDS011;41244;49.242;9.060;2023-03-14T12:57:33;3.70;;;2.40;;
55362;SDS011;41244;49.242;9.060;2023-03-14T13:00:18;2.38;;;2.00;;
55362;SDS011;41244;49.242;9.060;2023-03-14T13:02:46;2.20;;;2.00;;
55362;SDS011;41244;49.242;9.060;2023-03-14T13:15:47;4.38;;;3.35;;
55362;SDS011;41244;49.242;9.060;2023-03-14T13:18:27;3.20;;;2.75;;
55362;SDS011;41244;49.242;9.060;2023-03-14T13:23:55;3.40;;;2.60;;
55362;SDS011;41244;49.242;9.060;2023-03-14T13:26:34;5.07;;;3.30;;
55362;SDS011;41244;49.242;9.060;2023-03-14T13:29:09;3.30;;;3.00;;
55362;SDS011;41244;49.242;9.060;2023-03-14T13:31:52;3.97;;;3.03;;
55362;SDS011;41244;49.242;9.060;2023-03-14T13:34:29;4.03;;;3.45;;
55362;SDS011;41244;49.242;9.060;2023-03-14T13:36:57;6.22;;;3.42;;
55362;SDS011;41244;49.242;9.060;2023-03-14T13:39:23;4.63;;;3.08;;
55362;SDS011;41244;49.242;9.060;2023-03-14T13:41:53;5.38;;;2.90;;
55362;SDS011;41244;49.242;9.060;2023-03-14T13:47:00;3.05;;;2.40;;
55362;SDS011;41244;49.242;9.060;2023-03-14T13:49:28;4.65;;;2.60;;
55362;SDS011;41244;49.242;9.060;2023-03-14T13:51:57;3.20;;;2.33;;
55362;SDS011;41244;49.242;9.060;2023-03-14T13:54:23;3.30;;;2.15;;
55362;SDS011;41244;49.242;9.060;2023-03-14T13:56:59;3.30;;;2.75;;
55362;SDS011;41244;49.242;9.060;2023-03-14T13:59:28;5.32;;;2.75;;
55362;SDS011;41244;49.242;9.060;2023-03-14T14:01:59;4.50;;;2.92;;
55362;SDS011;41244;49.242;9.060;2023-03-14T14:04:40;7.03;;;5.82;;
55362;SDS011;41244;49.242;9.060;2023-03-14T14:07:06;5.53;;;3.10;;
55362;SDS011;41244;49.242;9.060;2023-03-14T14:09:44;6.38;;;2.92;;
55362;SDS011;41244;49.242;9.060;2023-03-14T14:12:14;7.97;;;5.80;;
55362;SDS011;41244;49.242;9.060;2023-03-14T14:14:43;4.85;;;3.55;;
55362;SDS011;41244;49.242;9.060;2023-03-14T14:17:26;5.60;;;3.47;;
55362;SDS011;41244;49.242;9.060;2023-03-14T14:19:59;5.32;;;3.00;;
55362;SDS011;41244;49.242;9.060;2023-03-14T14:22:26;5.38;;;2.80;;
55362;SDS011;41244;49.242;9.060;2023-03-14T14:24:52;5.03;;;3.55;;
55362;SDS011;41244;49.242;9.060;2023-03-14T14:27:19;2.65;;;2.00;;
55362;SDS011;41244;49.242;9.060;2023-03-14T14:32:42;4.30;;;2.50;;
55362;SDS011;41244;49.242;9.060;2023-03-14T14:35:09;10.93;;;4.57;;
55362;SDS011;41244;49.242;9.060;2023-03-14T14:37:48;6.82;;;3.50;;
55362;SDS011;41244;49.242;9.060;2023-03-14T14:40:16;7.28;;;4.70;;
55362;SDS011;41244;49.242;9.060;2023-03-14T14:42:45;6.80;;;4.50;;
55362;SDS011;41244;49.242;9.060;2023-03-14T14:45:12;7.85;;;4.93;;
55362;SDS011;41244;49.242;9.060;2023-03-14T14:47:53;7.72;;;5.18;;
55362;SDS011;41244;49.242;9.060;2023-03-14T14:50:28;3.47;;;2.63;;
55362;SDS011;41244;49.242;9.060;2023-03-14T14:53:59;2.95;;;2.40;;
55362;SDS011;41244;49.242;9.060;2023-03-14T14:56:16;5.63;;;2.20;;
55362;SDS011;41244;49.242;9.060;2023-03-14T14:58:51;4.65;;;2.25;;
55362;SDS011;41244;49.242;9.060;2023-03-14T15:01:30;2.60;;;2.40;;
55362;SDS011;41244;49.242;9.060;2023-03-14T15:04:03;5.57;;;2.30;;
55362;SDS011;41244;49.242;9.060;2023-03-14T15:06:38;3.53;;;2.47;;
55362;SDS011;41244;49.242;9.060;2023-03-14T15:09:08;5.25;;;2.42;;
55362;SDS011;41244;49.242;9.060;2023-03-14T15:11:36;4.30;;;2.72;;
55362;SDS011;41244;49.242;9.060;2023-03-14T15:14:01;4.45;;;2.40;;
55362;SDS011;41244;49.242;9.060;2023-03-14T15:16:29;4.72;;;2.45;;
55362;SDS011;41244;49.242;9.060;2023-03-14T15:19:00;2.50;;;2.30;;
55362;SDS011;41244;49.242;9.060;2023-03-14T15:21:30;4.78;;;2.67;;
55362;SDS011;41244;49.242;9.060;2023-03-14T15:23:57;6.05;;;3.08;;
55362;SDS011;41244;49.242;9.060;2023-03-14T15:26:24;6.57;;;2.90;;
55362;SDS011;41244;49.242;9.060;2023-03-14T15:28:51;5.03;;;2.60;;
55362;SDS011;41244;49.242;9.060;2023-03-14T15:31:18;3.25;;;2.40;;
55362;SDS011;41244;49.242;9.060;2023-03-14T15:33:46;2.47;;;2.00;;
55362;SDS011;41244;49.242;9.060;2023-03-14T15:36:20;4.15;;;2.40;;
55362;SDS011;41244;49.242;9.060;2023-03-14T15:38:52;5.75;;;2.20;;
55362;SDS011;41244;49.242;9.060;2023-03-14T15:41:18;6.82;;;4.00;;
55362;SDS011;41244;49.242;9.060;2023-03-14T15:43:45;4.90;;;3.45;;
55362;SDS011;41244;49.242;9.060;2023-03-14T15:46:11;5.05;;;2.55;;
55362;SDS011;41244;49.242;9.060;2023-03-14T15:48:37;4.10;;;2.45;;
55362;SDS011;41244;49.242;9.060;2023-03-14T15:51:03;3.00;;;2.33;;
55362;SDS011;41244;49.242;9.060;2023-03-14T15:53:29;4.38;;;2.75;;
55362;SDS011;41244;49.242;9.060;2023-03-14T15:55:55;8.23;;;2.88;;
55362;SDS011;41244;49.242;9.060;2023-03-14T15:58:20;5.40;;;3.10;;
55362;SDS011;41244;49.242;9.060;2023-03-14T16:00:46;7.15;;;3.17;;
55362;SDS011;41244;49.242;9.060;2023-03-14T16:03:13;7.00;;;4.43;;
55362;SDS011;41244;49.242;9.060;2023-03-14T16:05:39;4.85;;;3.38;;
55362;SDS011;41244;49.242;9.060;2023-03-14T16:08:05;2.72;;;2.45;;
55362;SDS011;41244;49.242;9.060;2023-03-14T16:10:31;5.40;;;2.97;;
55362;SDS011;41244;49.242;9.060;2023-03-14T16:12:57;7.22;;;2.50;;
55362;SDS011;41244;49.242;9.060;2023-03-14T16:15:23;4.45;;;2.22;;
55362;SDS011;41244;49.242;9.060;2023-03-14T16:17:53;4.03;;;2.85;;
55362;SDS011;41244;49.242;9.060;2023-03-14T16:20:19;3.70;;;2.20;;
55362;SDS011;41244;49.242;9.060;2023-03-14T16:22:46;4.95;;;2.55;;
55362;SDS011;41244;49.242;9.060;2023-03-14T16:25:12;4.40;;;2.40;;
55362;SDS011;41244;49.242;9.060;2023-03-14T16:27:38;8.20;;;4.57;;
55362;SDS011;41244;49.242;9.060;2023-03-14T16:30:04;7.22;;;3.90;;
55362;SDS011;41244;49.242;9.060;2023-03-14T16:32:31;7.13;;;3.22;;
55362;SDS011;41244;49.242;9.060;2023-03-14T16:34:56;10.15;;;3.33;;
55362;SDS011;41244;49.242;9.060;2023-03-14T16:37:23;4.80;;;2.65;;
55362;SDS011;41244;49.242;9.060;2023-03-14T16:39:49;8.02;;;3.60;;
55362;SDS011;41244;49.242;9.060;2023-03-14T16:42:15;4.07;;;2.75;;
55362;SDS011;41244;49.242;9.060;2023-03-14T16:44:41;4.28;;;2.72;;
55362;SDS011;41244;49.242;9.060;2023-03-14T16:47:07;5.13;;;2.13;;